Terminal Aerodrome Forecast
Issued by NWS

Home | Current Version | Previous Version | Text Only | Print | Product List | Glossary On
Versions: 1 2 3 4 5 6 7 8 9 10 11 12
000
FTUS46 KPDT 231720
TAFYKM
TAF
KYKM 231720Z 2318/2418 VRB05KT P6SM SCT200
     FM232300 15006KT P6SM BKN250
     FM240200 32007KT P6SM OVC200
     FM240800 32012KT P6SM SCT250
     FM241200 28005KT P6SM SKC=

USA.gov is the U.S. government's official web portal to all federal, state and local government web resources and services.